createdAt,value
2019-05-21T01:57:38.986Z,16.47
2019-05-21T02:00:08.549Z,9.47
2019-05-21T02:02:39.210Z,9.87
2019-05-21T02:05:08.726Z,11.10
2019-05-21T02:07:38.332Z,9.93
2019-05-21T02:10:11.425Z,8.77
2019-05-21T02:12:43.882Z,9.63
2019-05-21T02:15:13.450Z,9.87
2019-05-21T02:17:43.417Z,14.77
2019-05-21T02:20:13.543Z,9.33
2019-05-21T02:22:43.274Z,11.97
2019-05-21T02:25:13.612Z,10.40
2019-05-21T02:27:43.187Z,12.33
2019-05-21T02:30:14.174Z,9.93
2019-05-21T02:32:44.639Z,11.73
2019-05-21T02:35:16.761Z,11.87
2019-05-21T02:37:46.444Z,10.43
2019-05-21T02:40:17.289Z,11.53
2019-05-21T02:42:48.792Z,11.57
2019-05-21T02:45:18.869Z,11.17
2019-05-21T02:47:49.385Z,13.10
2019-05-21T02:50:21.660Z,11.23
2019-05-21T02:52:51.023Z,11.63
2019-05-21T02:55:20.573Z,13.93
2019-05-21T02:57:50.784Z,14.20
2019-05-21T03:00:42.446Z,11.73
2019-05-21T03:03:14.203Z,14.23
2019-05-21T03:05:44.199Z,14.40
2019-05-21T03:08:36.889Z,14.23
2019-05-21T03:11:16.672Z,13.60
2019-05-21T03:13:55.513Z,14.53
2019-05-21T03:16:31.102Z,16.17
2019-05-21T03:19:08.867Z,13.73
2019-05-21T03:21:38.968Z,13.67
2019-05-21T03:24:10.855Z,15.10
2019-05-21T03:26:40.981Z,16.00
2019-05-21T03:29:11.463Z,18.40
2019-05-21T03:31:42.601Z,14.40
2019-05-21T04:12:41.294Z,17.73
2019-05-21T04:16:45.202Z,22.57
2019-05-21T04:23:29.617Z,19.13
2019-05-21T04:26:44.463Z,19.80
2019-05-21T04:58:34.123Z,21.67
2019-05-21T05:01:14.813Z,20.20
2019-05-21T05:04:00.364Z,22.37
2019-05-21T05:06:40.738Z,21.10
2019-05-21T05:09:15.887Z,24.53
2019-05-21T05:12:20.617Z,21.83
2019-05-21T05:14:45.577Z,22.53
2019-05-21T05:17:11.193Z,21.90
2019-05-21T05:19:45.386Z,22.17
2019-05-21T05:22:23.139Z,26.97
2019-05-21T05:25:04.083Z,25.27
2019-05-21T05:27:40.420Z,24.37
2019-05-21T05:30:57.254Z,25.33
2019-05-21T05:40:51.121Z,22.57
2019-05-21T05:46:48.148Z,27.70
2019-05-21T05:49:27.777Z,26.67
2019-05-21T05:51:57.543Z,25.93
2019-05-21T05:54:34.720Z,26.83
2019-05-21T05:57:04.172Z,26.20
2019-05-21T05:59:34.159Z,26.93
2019-05-21T06:02:03.709Z,28.80
2019-05-21T06:04:33.520Z,26.23
2019-05-21T06:07:02.990Z,27.43
2019-05-21T06:09:32.766Z,25.47
2019-05-21T06:12:02.873Z,28.67
2019-05-21T06:14:33.025Z,30.00
2019-05-21T06:17:02.946Z,24.27
2019-05-21T06:19:32.269Z,25.37
2019-05-21T06:22:01.520Z,27.07
2019-05-21T06:24:30.881Z,26.30
2019-05-21T06:27:00.340Z,26.03
2019-05-21T06:29:29.899Z,24.70
2019-05-21T06:31:59.367Z,24.07
2019-05-21T06:34:28.528Z,25.17
2019-05-21T06:36:58.129Z,25.30
2019-05-21T06:39:27.725Z,24.73
2019-05-21T06:41:59.559Z,25.27
2019-05-21T06:44:28.604Z,24.50
2019-05-21T06:46:57.914Z,27.07
2019-05-21T06:49:26.974Z,28.43
2019-05-21T06:51:56.031Z,26.57
2019-05-21T06:54:25.404Z,27.97
2019-05-21T06:56:54.358Z,25.60
2019-05-21T06:59:23.438Z,25.47
2019-05-21T07:01:52.850Z,24.90
2019-05-21T07:04:22.003Z,26.73
2019-05-21T07:06:51.514Z,24.07
2019-05-21T07:09:20.841Z,24.23
2019-05-21T07:11:49.879Z,28.37
2019-05-21T07:14:18.967Z,27.00
2019-05-21T07:16:48.265Z,26.60
2019-05-21T07:19:17.579Z,25.70
2019-05-21T07:21:47.070Z,29.40
2019-05-21T07:24:16.063Z,24.73
2019-05-21T07:26:45.386Z,28.30
2019-05-21T07:29:14.846Z,25.30
2019-05-21T07:31:44.059Z,24.93
2019-05-21T07:34:13.135Z,26.87
2019-05-21T07:36:42.818Z,26.97
2019-05-21T07:39:12.235Z,24.17
2019-05-21T07:41:41.652Z,25.30
2019-05-21T07:44:11.200Z,24.83
2019-05-21T07:46:40.691Z,26.53
2019-05-21T07:49:10.039Z,23.83
2019-05-21T07:51:39.351Z,23.77
2019-05-21T07:54:08.752Z,23.37
2019-05-21T07:56:37.929Z,26.30
2019-05-21T07:59:07.305Z,23.87
2019-05-21T16:33:33.531Z,21.97
2019-05-21T16:38:34.785Z,27.00
2019-05-21T16:39:17.400Z,28.33
2019-05-21T16:41:04.931Z,26.80
2019-05-21T16:43:34.034Z,29.17
2019-05-21T16:46:03.436Z,26.50
2019-05-21T16:48:32.679Z,24.83
2019-05-21T16:51:01.886Z,25.40
2019-05-21T16:53:31.180Z,22.80
2019-05-21T16:56:01.667Z,26.40
2019-05-21T16:58:31.309Z,26.23
2019-05-21T17:01:00.892Z,25.80
2019-05-21T17:03:30.049Z,30.33
2019-05-21T17:05:59.509Z,26.13
2019-05-21T17:08:32.040Z,28.07
2019-05-21T17:11:01.337Z,24.63
2019-05-21T17:13:30.792Z,24.90
2019-05-21T17:16:00.754Z,26.03
2019-05-21T17:18:30.557Z,30.93
2019-05-21T17:20:59.736Z,36.97
2019-05-21T17:23:41.025Z,25.10
2019-05-21T17:26:10.741Z,28.23
2019-05-21T17:28:48.289Z,32.17
2019-05-21T17:31:23.393Z,29.77
2019-05-21T17:33:52.905Z,25.60
2019-05-21T17:36:22.469Z,28.07
2019-05-21T17:38:52.094Z,24.03
2019-05-21T17:41:22.209Z,21.93
2019-05-21T17:43:53.074Z,24.53
2019-05-21T17:46:23.890Z,24.87
2019-05-21T17:48:56.404Z,21.50
2019-05-21T17:51:27.805Z,24.93
2019-05-21T17:53:57.344Z,22.30
2019-05-21T17:56:28.354Z,24.43
2019-05-21T17:59:01.578Z,20.13
2019-05-21T18:01:31.177Z,22.10
2019-05-21T18:05:30.589Z,19.07
2019-05-21T18:07:40.768Z,19.03
2019-05-21T18:10:16.660Z,19.20
2019-05-21T18:12:57.562Z,18.87
2019-05-21T18:15:27.583Z,18.20
2019-05-21T18:19:00.904Z,19.80
2019-05-21T18:20:46.515Z,17.00
2019-05-21T18:23:26.030Z,22.03
2019-05-21T18:25:50.957Z,23.37
2019-05-21T18:28:21.678Z,23.87
2019-05-21T18:31:39.322Z,19.80
2019-05-21T18:34:10.089Z,21.10
2019-05-21T18:36:48.859Z,18.03
2019-05-21T18:39:24.425Z,19.07
2019-05-21T18:41:54.804Z,19.50
2019-05-21T18:44:28.021Z,16.13
2019-05-21T18:46:58.870Z,19.50
2019-05-21T18:50:35.550Z,20.00
2019-05-21T18:52:30.572Z,16.10
2019-05-21T18:54:52.052Z,19.70
2019-05-21T18:57:27.111Z,17.20
2019-05-21T19:00:07.202Z,17.83
2019-05-21T19:02:40.802Z,18.80
2019-05-21T19:05:11.187Z,16.40
2019-05-21T19:07:43.005Z,15.67
2019-05-21T19:10:22.952Z,18.30
2019-05-21T19:13:17.054Z,21.03
2019-05-21T19:15:47.048Z,15.07
2019-05-21T19:18:16.966Z,19.07
2019-05-21T19:20:50.132Z,20.37
2019-05-21T19:23:19.712Z,18.33
2019-05-21T19:25:53.432Z,16.37
2019-05-21T19:28:24.757Z,13.43
2019-05-21T19:31:05.332Z,14.70
2019-05-21T19:33:41.501Z,17.30
2019-05-21T19:36:12.887Z,16.57
2019-05-21T19:38:42.199Z,14.77
2019-05-21T19:42:55.067Z,13.50
2019-05-21T19:53:18.876Z,13.60
2019-05-21T19:57:01.375Z,12.83
2019-05-21T19:59:38.148Z,11.80
2019-05-21T20:02:06.874Z,12.67
2019-05-21T20:04:37.251Z,13.33
2019-05-21T20:07:20.525Z,12.90
2019-05-21T20:09:54.757Z,13.23
2019-05-21T20:12:30.259Z,14.10
2019-05-21T20:15:01.336Z,12.90
2019-05-21T20:17:32.434Z,18.37
2019-05-21T20:20:03.477Z,13.10
2019-05-21T20:22:35.315Z,13.67
2019-05-21T20:25:16.084Z,14.50
2019-05-21T20:27:53.519Z,15.83
2019-05-21T20:30:31.782Z,15.17
2019-05-21T20:33:42.078Z,14.37
2019-05-21T20:36:10.892Z,11.87
2019-05-21T20:38:48.806Z,17.23
2019-05-21T20:41:32.280Z,12.83
2019-05-21T20:44:54.705Z,12.13
2019-05-21T20:47:40.472Z,13.10
2019-05-21T20:50:59.027Z,13.57
2019-05-21T20:53:49.210Z,12.23
2019-05-21T20:56:28.538Z,12.77
2019-05-21T20:59:28.356Z,12.73
2019-05-21T21:02:36.838Z,14.30
2019-05-21T21:05:29.994Z,12.97
2019-05-21T21:08:27.859Z,14.47
2019-05-21T21:11:44.176Z,16.63
2019-05-21T21:14:54.583Z,14.87
2019-05-21T21:18:14.887Z,12.67
2019-05-21T21:21:33.799Z,13.60
2019-05-21T21:24:25.674Z,13.93
2019-05-21T21:27:10.235Z,11.47
2019-05-21T21:30:07.237Z,10.47
2019-05-21T21:38:22.332Z,10.77
2019-05-21T21:41:53.102Z,10.53
2019-05-21T21:44:43.878Z,9.67
2019-05-21T21:47:15.638Z,10.63
2019-05-21T21:49:46.986Z,11.10
2019-05-21T21:52:18.894Z,10.37
2019-05-21T21:54:48.283Z,10.80
2019-05-21T21:57:19.540Z,12.03
2019-05-21T21:59:49.352Z,13.20
2019-05-21T22:02:29.164Z,11.83
2019-05-21T22:05:00.031Z,8.23
2019-05-21T22:07:30.252Z,9.83
2019-05-21T22:09:59.962Z,9.20
2019-05-21T22:12:30.025Z,9.40
2019-05-21T22:15:02.437Z,10.13
2019-05-21T22:17:33.979Z,8.33
2019-05-21T22:20:05.498Z,10.30
2019-05-21T22:22:38.475Z,9.77
2019-05-21T22:25:08.235Z,10.57
2019-05-21T22:27:38.464Z,11.33
2019-05-21T22:30:19.251Z,10.70
2019-05-21T22:36:13.096Z,11.03
2019-05-21T22:38:43.804Z,10.47
2019-05-21T22:41:14.254Z,11.47
2019-05-21T22:43:45.153Z,11.07
2019-05-21T22:46:15.547Z,13.17
2019-05-21T22:48:52.764Z,10.67
2019-05-21T22:51:23.021Z,13.13
2019-05-21T22:53:52.913Z,11.20
2019-05-21T22:56:23.381Z,12.10
2019-05-21T22:58:54.198Z,13.10
2019-05-21T23:01:26.229Z,12.93
2019-05-21T23:03:57.319Z,10.87
2019-05-21T23:06:27.699Z,13.70
2019-05-21T23:08:58.234Z,13.60
2019-05-21T23:11:31.260Z,13.80
2019-05-21T23:14:01.833Z,13.27
2019-05-21T23:16:32.168Z,15.47
2019-05-21T23:19:04.325Z,12.67
2019-05-21T23:21:38.334Z,15.90
2019-05-21T23:24:13.970Z,15.17
2019-05-21T23:26:45.245Z,18.60
2019-05-21T23:29:21.596Z,12.93
2019-05-21T23:31:53.012Z,14.97
2019-05-21T23:34:24.720Z,16.87
2019-05-21T23:36:55.210Z,14.27
2019-05-21T23:39:28.963Z,14.90
2019-05-21T23:41:59.232Z,16.63
2019-05-21T23:44:29.638Z,25.00
2019-05-21T23:47:00.656Z,16.60
2019-05-21T23:49:30.362Z,13.73
2019-05-21T23:52:00.803Z,21.67
2019-05-21T23:55:20.078Z,16.87
2019-05-21T23:58:58.481Z,17.37
